createdAt,value
2017-10-16T00:00:25.518Z,98654.89
2017-10-16T00:00:57.182Z,98653.19
2017-10-16T00:01:29.063Z,98651.52
2017-10-16T00:02:00.717Z,98652.37
2017-10-16T00:02:32.367Z,98657.48
2017-10-16T00:03:04.200Z,98651.09
2017-10-16T00:03:35.858Z,98655.36
2017-10-16T00:04:07.779Z,98655.36
2017-10-16T00:04:39.534Z,98661.31
2017-10-16T00:05:11.190Z,98656.20
2017-10-16T00:05:42.838Z,98652.34
2017-10-16T00:06:14.486Z,98652.80
2017-10-16T00:06:46.136Z,98652.80
2017-10-16T00:07:18.046Z,98658.34
2017-10-16T00:07:49.701Z,98656.21
2017-10-16T00:08:21.378Z,98660.05
2017-10-16T00:08:53.236Z,98650.67
2017-10-16T00:09:24.890Z,98654.50
2017-10-16T00:09:56.538Z,98651.09
2017-10-16T00:10:28.204Z,98661.32
2017-10-16T00:10:59.856Z,98656.25
2017-10-16T00:11:31.507Z,98657.95
2017-10-16T00:12:03.160Z,98659.66
2017-10-16T00:12:34.817Z,98651.95
2017-10-16T00:13:06.470Z,98649.00
2017-10-16T00:13:38.123Z,98656.21
2017-10-16T00:14:09.966Z,98654.93
2017-10-16T00:14:41.623Z,98661.32
2017-10-16T00:15:13.314Z,98655.36
2017-10-16T00:15:44.962Z,98654.50
2017-10-16T00:16:16.610Z,98653.69
2017-10-16T00:16:48.274Z,98657.95
2017-10-16T00:17:20.157Z,98659.23
2017-10-16T00:17:52.112Z,98654.54
2017-10-16T00:18:23.759Z,98653.69
2017-10-16T00:18:55.450Z,98652.84
2017-10-16T00:19:27.098Z,98653.23
2017-10-16T00:19:58.794Z,98653.66
2017-10-16T00:20:30.443Z,98656.64
2017-10-16T00:21:02.090Z,98653.23
2017-10-16T00:21:33.738Z,98658.77
2017-10-16T00:22:05.388Z,98658.34
2017-10-16T00:22:37.034Z,98661.71
2017-10-16T00:23:08.686Z,98660.43
2017-10-16T00:23:40.482Z,98662.14
2017-10-16T00:24:12.130Z,98659.16
2017-10-16T00:24:43.830Z,98660.04
2017-10-16T00:25:15.714Z,98651.09
2017-10-16T00:25:47.366Z,98651.95
2017-10-16T00:26:19.014Z,98658.77
2017-10-16T00:26:50.674Z,98654.08
2017-10-16T00:27:22.322Z,98654.93
2017-10-16T00:27:53.970Z,98653.66
2017-10-16T00:28:25.824Z,98660.89
2017-10-16T00:28:57.480Z,98648.55
2017-10-16T00:29:29.182Z,98659.62
2017-10-16T00:30:00.829Z,98652.37
2017-10-16T00:30:32.482Z,98650.21
2017-10-16T00:31:04.136Z,98654.93
2017-10-16T00:31:35.990Z,98657.91
2017-10-16T00:32:07.673Z,98649.82
2017-10-16T00:32:39.321Z,98651.95
2017-10-16T00:33:10.966Z,98648.12
2017-10-16T00:33:42.618Z,98647.72
2017-10-16T00:34:14.266Z,98656.25
2017-10-16T00:34:45.927Z,98648.16
2017-10-16T00:35:17.828Z,98655.86
2017-10-16T00:35:49.481Z,98650.28
2017-10-16T00:36:21.130Z,98646.91
2017-10-16T00:36:52.782Z,98650.75
2017-10-16T00:37:24.430Z,98652.02
2017-10-16T00:37:56.348Z,98649.47
2017-10-16T00:38:28.002Z,98647.77
2017-10-16T00:38:59.651Z,98645.24
2017-10-16T00:39:31.314Z,98650.75
2017-10-16T00:40:03.141Z,98650.36
2017-10-16T00:40:34.791Z,98648.23
2017-10-16T00:41:06.447Z,98649.50
2017-10-16T00:41:38.099Z,98654.62
2017-10-16T00:42:09.767Z,98651.63
2017-10-16T00:42:41.427Z,98648.23
2017-10-16T00:43:13.381Z,98652.09
2017-10-16T00:43:45.029Z,98645.70
2017-10-16T00:44:16.682Z,98646.95
2017-10-16T00:44:48.342Z,98646.52
2017-10-16T00:45:20.052Z,98647.38
2017-10-16T00:45:51.714Z,98647.80
2017-10-16T00:46:23.361Z,98644.36
2017-10-16T00:46:55.006Z,98645.21
2017-10-16T00:47:26.675Z,98641.38
2017-10-16T00:47:58.325Z,98650.75
2017-10-16T00:48:30.107Z,98651.20
2017-10-16T00:49:01.758Z,98652.91
2017-10-16T00:49:33.410Z,98648.23
2017-10-16T00:50:05.057Z,98648.23
2017-10-16T00:50:36.935Z,98644.82
2017-10-16T00:51:08.582Z,98649.08
2017-10-16T00:51:40.238Z,98649.55
2017-10-16T00:52:11.907Z,98649.94
2017-10-16T00:52:43.558Z,98651.67
2017-10-16T00:53:15.210Z,98647.84
2017-10-16T00:53:46.862Z,98643.97
2017-10-16T00:54:18.506Z,98646.53
2017-10-16T00:54:50.154Z,98644.39
2017-10-16T00:55:21.803Z,98649.50
2017-10-16T00:55:53.709Z,98650.36
2017-10-16T00:56:25.365Z,98643.16
2017-10-16T00:56:57.023Z,98641.88
2017-10-16T00:57:28.675Z,98645.70
2017-10-16T00:58:00.327Z,98646.13
2017-10-16T00:58:31.978Z,98644.44
2017-10-16T00:59:03.635Z,98646.98
2017-10-16T00:59:35.483Z,98641.02
2017-10-16T01:00:07.130Z,98646.13
2017-10-16T01:00:38.793Z,98646.13
2017-10-16T01:01:10.482Z,98639.32
2017-10-16T01:01:42.187Z,98641.02
2017-10-16T01:02:13.839Z,98638.89
2017-10-16T01:02:45.492Z,98643.16
2017-10-16T01:03:17.141Z,98638.89
2017-10-16T01:03:48.794Z,98636.37
2017-10-16T01:04:20.447Z,98637.62
2017-10-16T01:04:52.234Z,98638.08
2017-10-16T01:05:23.886Z,98634.67
2017-10-16T01:05:55.538Z,98638.50
2017-10-16T01:06:27.195Z,98643.16
2017-10-16T01:06:58.884Z,98641.48
2017-10-16T01:07:30.534Z,98636.37
2017-10-16T01:08:02.191Z,98635.52
2017-10-16T01:08:33.843Z,98640.59
2017-10-16T01:09:05.491Z,98647.84
2017-10-16T01:09:37.155Z,98644.44
2017-10-16T01:10:08.802Z,98644.05
2017-10-16T01:10:40.455Z,98641.91
2017-10-16T01:11:12.247Z,98638.51
2017-10-16T01:11:43.906Z,98635.95
2017-10-16T01:12:15.551Z,98640.20
2017-10-16T01:12:47.198Z,98635.95
2017-10-16T01:13:18.988Z,98638.93
2017-10-16T01:13:50.762Z,98639.78
2017-10-16T01:14:22.417Z,98634.67
2017-10-16T01:14:54.067Z,98637.27
2017-10-16T01:15:25.719Z,98635.56
2017-10-16T01:15:57.532Z,98635.95
2017-10-16T01:16:29.233Z,98633.39
2017-10-16T01:17:00.890Z,98635.52
2017-10-16T01:17:32.543Z,98644.05
2017-10-16T01:18:04.201Z,98638.12
2017-10-16T01:18:36.152Z,98632.16
2017-10-16T01:19:07.807Z,98635.56
2017-10-16T01:19:39.459Z,98631.30
2017-10-16T01:20:11.117Z,98633.00
2017-10-16T01:20:42.996Z,98635.56
2017-10-16T01:21:14.648Z,98637.27
2017-10-16T01:21:46.348Z,98635.56
2017-10-16T01:22:18.006Z,98638.08
2017-10-16T01:22:49.654Z,98635.56
2017-10-16T01:23:21.317Z,98636.80
2017-10-16T01:23:53.189Z,98638.93
2017-10-16T01:24:24.841Z,98635.56
2017-10-16T01:24:56.495Z,98640.25
2017-10-16T01:25:28.149Z,98635.98
2017-10-16T01:25:59.807Z,98636.41
2017-10-16T01:26:31.475Z,98634.25
2017-10-16T01:27:03.206Z,98638.50
2017-10-16T01:27:34.987Z,98636.80
2017-10-16T01:28:06.637Z,98635.52
2017-10-16T01:28:38.293Z,98630.88
2017-10-16T01:29:09.947Z,98633.86
2017-10-16T01:29:41.625Z,98635.56
2017-10-16T01:30:13.289Z,98637.69
2017-10-16T01:30:44.951Z,98637.30
2017-10-16T01:31:16.603Z,98632.58
2017-10-16T01:31:48.254Z,98639.42
2017-10-16T01:32:19.982Z,98633.47
2017-10-16T01:32:51.634Z,98635.59
2017-10-16T01:33:23.291Z,98640.70
2017-10-16T01:33:54.942Z,98634.75
2017-10-16T01:34:26.595Z,98635.17
2017-10-16T01:34:58.264Z,98633.47
2017-10-16T01:35:30.153Z,98633.89
2017-10-16T01:36:01.807Z,98629.63
2017-10-16T01:36:33.458Z,98630.45
2017-10-16T01:37:05.114Z,98627.93
2017-10-16T01:37:36.800Z,98626.20
2017-10-16T01:38:08.458Z,98628.75
2017-10-16T01:38:40.117Z,98625.80
2017-10-16T01:39:11.772Z,98626.66
2017-10-16T01:39:43.438Z,98631.34
2017-10-16T01:40:15.110Z,98628.36
2017-10-16T01:40:46.763Z,98633.04
2017-10-16T01:41:18.414Z,98626.66
2017-10-16T01:41:50.070Z,98625.80
2017-10-16T01:42:21.727Z,98624.95
2017-10-16T01:42:53.422Z,98624.53
2017-10-16T01:43:25.079Z,98625.80
2017-10-16T01:43:56.735Z,98625.38
2017-10-16T01:44:28.394Z,98624.95
2017-10-16T01:45:00.095Z,98629.63
2017-10-16T01:45:31.756Z,98630.06
2017-10-16T01:46:03.412Z,98622.39
2017-10-16T01:46:35.068Z,98623.25
2017-10-16T01:47:06.719Z,98618.98
2017-10-16T01:47:38.374Z,98617.28
2017-10-16T01:48:10.250Z,98616.86
2017-10-16T01:48:41.907Z,98617.71
2017-10-16T01:49:13.558Z,98621.11
2017-10-16T01:49:45.205Z,98618.98
2017-10-16T01:50:17.085Z,98616.40
2017-10-16T01:50:48.738Z,98615.97
2017-10-16T01:51:20.393Z,98621.94
2017-10-16T01:51:52.359Z,98621.51
2017-10-16T01:52:24.028Z,98619.38
2017-10-16T01:52:55.722Z,98618.09
2017-10-16T01:53:27.525Z,98613.84
2017-10-16T01:53:59.187Z,98614.27
2017-10-16T01:54:30.841Z,98616.40
2017-10-16T01:55:02.825Z,98621.55
2017-10-16T01:55:34.531Z,98618.98
2017-10-16T01:56:06.182Z,98617.28
2017-10-16T01:56:37.841Z,98615.58
2017-10-16T01:57:09.495Z,98617.28
2017-10-16T01:57:41.146Z,98620.27
2017-10-16T01:58:12.811Z,98612.60
2017-10-16T01:58:44.468Z,98616.01
2017-10-16T01:59:16.122Z,98613.48
2017-10-16T01:59:48.178Z,98614.30
2017-10-16T02:00:19.840Z,98613.06
2017-10-16T02:00:51.510Z,98614.34
2017-10-16T02:01:23.161Z,98613.06
2017-10-16T02:01:54.810Z,98616.05
2017-10-16T02:02:26.463Z,98611.36
2017-10-16T02:02:58.118Z,98607.10
2017-10-16T02:03:30.020Z,98608.38
2017-10-16T02:04:01.671Z,98607.91
2017-10-16T02:04:33.334Z,98613.87
2017-10-16T02:05:05.002Z,98611.72
2017-10-16T02:05:36.656Z,98610.01
2017-10-16T02:06:08.352Z,98607.06
2017-10-16T02:06:40.000Z,98611.75
2017-10-16T02:07:11.671Z,98607.06
2017-10-16T02:07:43.329Z,98608.34
2017-10-16T02:08:15.100Z,98609.20
2017-10-16T02:08:46.750Z,98608.77
2017-10-16T02:09:18.398Z,98608.34
2017-10-16T02:09:50.046Z,98610.05
2017-10-16T02:10:21.695Z,98610.47
2017-10-16T02:10:53.346Z,98607.91
2017-10-16T02:11:24.993Z,98603.66
2017-10-16T02:11:56.644Z,98611.33
2017-10-16T02:12:28.294Z,98608.77
2017-10-16T02:13:00.069Z,98608.38
2017-10-16T02:13:31.721Z,98605.36
2017-10-16T02:14:03.375Z,98607.92
2017-10-16T02:14:35.027Z,98604.55
2017-10-16T02:15:06.678Z,98608.80
2017-10-16T02:15:38.378Z,98607.10
2017-10-16T02:16:10.037Z,98609.66
2017-10-16T02:16:41.694Z,98602.84
2017-10-16T02:17:13.341Z,98601.99
2017-10-16T02:17:44.990Z,98604.13
2017-10-16T02:18:16.642Z,98607.53
2017-10-16T02:18:48.290Z,98606.68
2017-10-16T02:19:19.938Z,98611.78
2017-10-16T02:19:51.586Z,98607.53
2017-10-16T02:20:23.238Z,98604.97
2017-10-16T02:20:54.930Z,98607.10
2017-10-16T02:21:26.582Z,98601.56
2017-10-16T02:21:58.229Z,98610.51
2017-10-16T02:22:29.878Z,98609.66
2017-10-16T02:23:01.527Z,98600.72
2017-10-16T02:23:33.178Z,98604.13
2017-10-16T02:24:04.831Z,98606.67
2017-10-16T02:24:36.490Z,98598.16
2017-10-16T02:25:08.256Z,98600.29
2017-10-16T02:25:39.910Z,98598.59
2017-10-16T02:26:11.559Z,98593.94
2017-10-16T02:26:43.210Z,98593.48
2017-10-16T02:27:14.858Z,98596.03
2017-10-16T02:27:46.506Z,98594.75
2017-10-16T02:28:18.374Z,98592.63
2017-10-16T02:28:50.061Z,98594.75
2017-10-16T02:29:21.716Z,98594.33
2017-10-16T02:29:53.370Z,98597.73
2017-10-16T02:30:25.018Z,98594.33
2017-10-16T02:30:56.712Z,98587.09
2017-10-16T02:31:28.540Z,98594.75
2017-10-16T02:32:00.221Z,98589.64
2017-10-16T02:32:31.877Z,98591.77
2017-10-16T02:33:03.533Z,98589.64
2017-10-16T02:33:35.190Z,98591.77
2017-10-16T02:34:06.839Z,98587.48
2017-10-16T02:34:38.735Z,98583.18
2017-10-16T02:35:10.390Z,98589.88
2017-10-16T02:35:42.038Z,98589.88
2017-10-16T02:36:13.687Z,98590.30
2017-10-16T02:36:45.344Z,98589.53
2017-10-16T02:37:16.996Z,98587.01
2017-10-16T02:37:48.890Z,98593.40
2017-10-16T02:38:20.543Z,98589.14
2017-10-16T02:38:52.244Z,98593.44
2017-10-16T02:39:23.898Z,98595.56
2017-10-16T02:39:55.556Z,98591.73
2017-10-16T02:40:27.215Z,98594.72
2017-10-16T02:40:58.868Z,98593.02
2017-10-16T02:41:30.517Z,98597.27
2017-10-16T02:42:02.172Z,98600.25
2017-10-16T02:42:33.826Z,98596.42
2017-10-16T02:43:05.480Z,98594.25
2017-10-16T02:43:37.134Z,98594.68
2017-10-16T02:44:08.835Z,98596.84
2017-10-16T02:44:40.495Z,98591.70
2017-10-16T02:45:12.166Z,98598.09
2017-10-16T02:45:43.827Z,98590.03
2017-10-16T02:46:15.477Z,98592.98
2017-10-16T02:46:47.131Z,98594.68
2017-10-16T02:47:18.786Z,98594.25
2017-10-16T02:47:50.441Z,98592.98
2017-10-16T02:48:22.099Z,98592.16
2017-10-16T02:48:53.779Z,98596.38
2017-10-16T02:49:25.477Z,98593.83
2017-10-16T02:49:57.135Z,98587.44
2017-10-16T02:50:28.795Z,98587.86
2017-10-16T02:51:00.459Z,98586.16
2017-10-16T02:51:32.126Z,98590.42
2017-10-16T02:52:03.800Z,98585.73
2017-10-16T02:52:35.462Z,98581.05
2017-10-16T02:53:07.426Z,98583.19
2017-10-16T02:53:39.086Z,98581.91
2017-10-16T02:54:10.742Z,98584.03
2017-10-16T02:54:42.443Z,98584.92
2017-10-16T02:55:14.092Z,98583.61
2017-10-16T02:55:45.749Z,98585.31
2017-10-16T02:56:17.403Z,98581.94
2017-10-16T02:56:49.059Z,98582.33
2017-10-16T02:57:20.727Z,98585.73
2017-10-16T02:57:52.393Z,98587.86
2017-10-16T02:58:24.048Z,98584.45
2017-10-16T02:58:55.702Z,98580.59
2017-10-16T02:59:27.358Z,98586.97
2017-10-16T02:59:59.010Z,98585.31
2017-10-16T03:00:30.666Z,98581.48
2017-10-16T03:01:02.319Z,98585.77
2017-10-16T03:01:33.969Z,98588.79
2017-10-16T03:02:05.625Z,98591.34
2017-10-16T03:02:37.291Z,98589.67
2017-10-16T03:03:08.942Z,98587.98
2017-10-16T03:03:40.796Z,98586.70
2017-10-16T03:04:12.454Z,98585.42
2017-10-16T03:04:44.102Z,98586.27
2017-10-16T03:05:15.791Z,98584.14
2017-10-16T03:05:47.690Z,98583.72
2017-10-16T03:06:19.346Z,98585.42
2017-10-16T03:06:51.002Z,98585.42
2017-10-16T03:07:22.664Z,98585.46
2017-10-16T03:07:54.632Z,98578.19
2017-10-16T03:08:26.284Z,98582.05
2017-10-16T03:08:57.945Z,98583.33
2017-10-16T03:09:29.594Z,98585.03
2017-10-16T03:10:01.311Z,98579.08
2017-10-16T03:10:32.962Z,98578.22
2017-10-16T03:11:04.613Z,98580.74
2017-10-16T03:11:36.266Z,98585.42
2017-10-16T03:12:07.915Z,98584.57
2017-10-16T03:12:39.566Z,98583.69
2017-10-16T03:13:11.214Z,98587.09
2017-10-16T03:13:42.906Z,98580.70
2017-10-16T03:14:14.554Z,98582.83
2017-10-16T03:14:46.198Z,98582.41
2017-10-16T03:15:17.931Z,98585.81
2017-10-16T03:15:49.586Z,98588.37
2017-10-16T03:16:21.249Z,98585.81
2017-10-16T03:16:53.155Z,98587.52
2017-10-16T03:17:24.858Z,98590.92
2017-10-16T03:17:56.516Z,98592.63
2017-10-16T03:18:28.169Z,98587.52
2017-10-16T03:19:00.030Z,98588.79
2017-10-16T03:19:31.682Z,98589.22
2017-10-16T03:20:03.334Z,98592.63
2017-10-16T03:20:34.991Z,98587.05
2017-10-16T03:21:06.662Z,98590.06
2017-10-16T03:21:38.330Z,98595.17
2017-10-16T03:22:10.189Z,98586.23
2017-10-16T03:22:41.900Z,98590.06
2017-10-16T03:23:13.779Z,98587.52
2017-10-16T03:23:45.611Z,98591.38
2017-10-16T03:24:17.370Z,98595.18
2017-10-16T03:24:49.320Z,98591.34
2017-10-16T03:25:20.969Z,98591.77
2017-10-16T03:25:52.619Z,98586.23
2017-10-16T03:26:24.265Z,98592.20
2017-10-16T03:26:55.918Z,98596.45
2017-10-16T03:27:27.567Z,98592.63
2017-10-16T03:27:59.398Z,98588.37
2017-10-16T03:28:31.058Z,98590.06
2017-10-16T03:29:02.710Z,98590.50
2017-10-16T03:29:34.401Z,98583.72
2017-10-16T03:30:06.057Z,98590.11
2017-10-16T03:30:37.727Z,98591.38
2017-10-16T03:31:09.619Z,98591.81
2017-10-16T03:31:41.290Z,98592.23
2017-10-16T03:32:12.942Z,98596.50
2017-10-16T03:32:44.602Z,98593.94
2017-10-16T03:33:16.258Z,98593.09
2017-10-16T03:33:47.911Z,98591.77
2017-10-16T03:34:19.563Z,98595.21
2017-10-16T03:34:51.404Z,98590.95
2017-10-16T03:35:23.386Z,98593.91
2017-10-16T03:35:55.038Z,98595.18
2017-10-16T03:36:26.729Z,98591.34
2017-10-16T03:36:58.625Z,98594.79
2017-10-16T03:37:30.282Z,98595.61
2017-10-16T03:38:01.934Z,98588.83
2017-10-16T03:38:33.582Z,98590.11
2017-10-16T03:39:05.234Z,98588.83
2017-10-16T03:39:36.930Z,98591.39
2017-10-16T03:40:08.778Z,98590.14
2017-10-16T03:40:40.430Z,98595.22
2017-10-16T03:41:12.081Z,98585.46
2017-10-16T03:41:43.730Z,98588.02
2017-10-16T03:42:15.378Z,98587.59
2017-10-16T03:42:47.030Z,98585.46
2017-10-16T03:43:18.679Z,98583.33
2017-10-16T03:43:50.340Z,98583.76
2017-10-16T03:44:22.220Z,98583.75
2017-10-16T03:44:53.902Z,98585.46
2017-10-16T03:45:25.554Z,98584.61
2017-10-16T03:45:57.206Z,98583.33
2017-10-16T03:46:28.862Z,98582.05
2017-10-16T03:47:00.744Z,98590.57
2017-10-16T03:47:32.394Z,98589.72
2017-10-16T03:48:04.042Z,98585.46
2017-10-16T03:48:35.690Z,98586.31
2017-10-16T03:49:07.354Z,98585.89
2017-10-16T03:49:39.015Z,98588.87
2017-10-16T03:50:10.707Z,98584.61
2017-10-16T03:50:42.375Z,98585.89
2017-10-16T03:51:14.028Z,98589.30
2017-10-16T03:51:45.825Z,98582.91
2017-10-16T03:52:17.492Z,98584.22
2017-10-16T03:52:49.158Z,98588.48
2017-10-16T03:53:20.815Z,98584.22
2017-10-16T03:53:52.468Z,98585.92
2017-10-16T03:54:24.165Z,98585.92
2017-10-16T03:54:55.821Z,98583.37
2017-10-16T03:55:27.622Z,98580.78
2017-10-16T03:55:59.321Z,98591.03
2017-10-16T03:56:30.976Z,98583.34
2017-10-16T03:57:02.631Z,98588.05
2017-10-16T03:57:34.288Z,98585.89
2017-10-16T03:58:05.951Z,98586.32
2017-10-16T03:58:37.605Z,98589.76
2017-10-16T03:59:09.266Z,98586.74
2017-10-16T03:59:40.925Z,98587.59
2017-10-16T04:00:12.634Z,98583.34
2017-10-16T04:00:44.281Z,98585.08
2017-10-16T04:01:15.930Z,98584.65
2017-10-16T04:01:47.579Z,98582.52
2017-10-16T04:02:19.237Z,98577.41
2017-10-16T04:02:50.895Z,98578.27
2017-10-16T04:03:22.547Z,98577.41
2017-10-16T04:03:54.198Z,98578.69
2017-10-16T04:04:25.898Z,98579.50
2017-10-16T04:04:57.548Z,98574.86
2017-10-16T04:05:29.433Z,98579.97
2017-10-16T04:06:01.082Z,98579.11
2017-10-16T04:06:32.734Z,98584.65
2017-10-16T04:07:04.394Z,98581.67
2017-10-16T04:07:36.053Z,98581.67
2017-10-16T04:08:07.706Z,98585.50
2017-10-16T04:08:39.363Z,98578.69
2017-10-16T04:09:11.018Z,98585.93
2017-10-16T04:09:42.710Z,98580.85
2017-10-16T04:10:14.359Z,98578.27
2017-10-16T04:10:46.018Z,98587.63
2017-10-16T04:11:17.671Z,98587.62
2017-10-16T04:11:49.443Z,98583.80
2017-10-16T04:12:21.094Z,98585.50
2017-10-16T04:12:52.746Z,98578.27
2017-10-16T04:13:24.399Z,98584.64
2017-10-16T04:13:56.092Z,98583.80
2017-10-16T04:14:27.959Z,98576.95
2017-10-16T04:14:59.610Z,98579.92
2017-10-16T04:15:31.302Z,98581.20
2017-10-16T04:16:03.192Z,98584.58
2017-10-16T04:16:34.842Z,98580.34
2017-10-16T04:17:06.493Z,98581.63
2017-10-16T04:17:38.158Z,98582.91
2017-10-16T04:18:09.806Z,98587.12
2017-10-16T04:18:41.462Z,98585.00
2017-10-16T04:19:13.351Z,98587.98
2017-10-16T04:19:45.002Z,98585.85
2017-10-16T04:20:16.698Z,98584.19
2017-10-16T04:20:48.356Z,98590.14
2017-10-16T04:21:20.225Z,98587.16
2017-10-16T04:21:52.174Z,98591.39
2017-10-16T04:22:23.838Z,98585.46
2017-10-16T04:22:55.489Z,98588.44
2017-10-16T04:23:27.142Z,98588.87
2017-10-16T04:23:58.790Z,98588.87
2017-10-16T04:24:30.442Z,98590.56
2017-10-16T04:25:02.095Z,98588.87
2017-10-16T04:25:33.798Z,98586.31
2017-10-16T04:26:05.446Z,98588.02
2017-10-16T04:26:37.097Z,98592.70
2017-10-16T04:27:08.746Z,98585.03
2017-10-16T04:27:40.543Z,98586.31
2017-10-16T04:28:12.194Z,98588.44
2017-10-16T04:28:43.845Z,98588.45
2017-10-16T04:29:15.494Z,98588.48
2017-10-16T04:29:47.146Z,98591.84
2017-10-16T04:30:18.794Z,98586.73
2017-10-16T04:30:50.690Z,98587.12
2017-10-16T04:31:22.464Z,98590.96
2017-10-16T04:31:54.114Z,98588.87
2017-10-16T04:32:25.762Z,98585.03
2017-10-16T04:32:57.411Z,98584.61
2017-10-16T04:33:29.062Z,98584.61
2017-10-16T04:34:00.720Z,98587.16
2017-10-16T04:34:32.502Z,98585.46
2017-10-16T04:35:04.154Z,98587.62
2017-10-16T04:35:35.806Z,98579.97
2017-10-16T04:36:07.453Z,98587.20
2017-10-16T04:36:39.103Z,98580.39
2017-10-16T04:37:10.758Z,98585.08
2017-10-16T04:37:42.413Z,98583.84
2017-10-16T04:38:14.303Z,98585.11
2017-10-16T04:38:45.954Z,98584.69
2017-10-16T04:39:17.606Z,98582.56
2017-10-16T04:39:49.254Z,98582.95
2017-10-16T04:40:20.955Z,98582.09
2017-10-16T04:40:52.819Z,98584.23
2017-10-16T04:41:24.474Z,98581.28
2017-10-16T04:41:56.138Z,98581.25
2017-10-16T04:42:27.786Z,98579.58
2017-10-16T04:42:59.434Z,98580.43
2017-10-16T04:43:31.102Z,98581.70
2017-10-16T04:44:02.759Z,98584.69
2017-10-16T04:44:34.606Z,98577.45
2017-10-16T04:45:06.570Z,98581.67
2017-10-16T04:45:38.263Z,98580.43
2017-10-16T04:46:10.160Z,98573.63
2017-10-16T04:46:41.827Z,98575.33
2017-10-16T04:47:13.475Z,98575.75
2017-10-16T04:47:45.123Z,98576.59
2017-10-16T04:48:16.780Z,98582.13
2017-10-16T04:48:48.611Z,98579.58
2017-10-16T04:49:20.262Z,98580.44
2017-10-16T04:49:52.158Z,98580.00
2017-10-16T04:50:24.112Z,98579.16
2017-10-16T04:50:55.767Z,98577.48
2017-10-16T04:51:27.458Z,98579.16
2017-10-16T04:51:59.142Z,98577.06
2017-10-16T04:52:30.794Z,98576.59
2017-10-16T04:53:02.446Z,98578.34
2017-10-16T04:53:34.127Z,98578.77
2017-10-16T04:54:05.783Z,98580.05
2017-10-16T04:54:37.659Z,98575.78
2017-10-16T04:55:09.310Z,98578.34
2017-10-16T04:55:40.963Z,98580.00
2017-10-16T04:56:12.614Z,98582.13
2017-10-16T04:56:44.538Z,98576.59
2017-10-16T04:57:16.199Z,98581.70
2017-10-16T04:57:47.881Z,98582.98
2017-10-16T04:58:19.760Z,98579.58
2017-10-16T04:58:51.716Z,98588.09
2017-10-16T04:59:23.366Z,98578.73
2017-10-16T04:59:55.022Z,98581.28
2017-10-16T05:00:26.675Z,98582.52
2017-10-16T05:00:58.326Z,98585.93
2017-10-16T05:01:29.975Z,98582.56
2017-10-16T05:02:01.683Z,98584.69
2017-10-16T05:02:33.333Z,98587.70
2017-10-16T05:03:04.982Z,98579.61
2017-10-16T05:03:36.629Z,98583.02
2017-10-16T05:04:08.287Z,98583.87
2017-10-16T05:04:39.939Z,98577.06
2017-10-16T05:05:11.594Z,98580.47
2017-10-16T05:05:43.245Z,98581.31
2017-10-16T05:06:15.009Z,98588.52
2017-10-16T05:06:46.662Z,98580.86
2017-10-16T05:07:18.355Z,98582.56
2017-10-16T05:07:50.014Z,98582.98
2017-10-16T05:08:21.884Z,98578.73
2017-10-16T05:08:53.544Z,98588.09
2017-10-16T05:09:25.197Z,98586.78
2017-10-16T05:09:56.847Z,98579.58
2017-10-16T05:10:28.498Z,98587.24
2017-10-16T05:11:00.154Z,98583.41
2017-10-16T05:11:32.043Z,98587.24
2017-10-16T05:12:03.694Z,98582.98
2017-10-16T05:12:35.633Z,98588.95
2017-10-16T05:13:07.287Z,98580.85
2017-10-16T05:13:38.938Z,98582.56
2017-10-16T05:14:10.591Z,98587.24
2017-10-16T05:14:42.242Z,98582.56
2017-10-16T05:15:13.894Z,98587.24
2017-10-16T05:15:45.545Z,98586.39
2017-10-16T05:16:17.436Z,98585.97
2017-10-16T05:16:49.086Z,98585.50
2017-10-16T05:17:20.738Z,98585.97
2017-10-16T05:17:52.385Z,98585.93
2017-10-16T05:18:24.033Z,98586.78
2017-10-16T05:18:55.681Z,98587.66
2017-10-16T05:19:27.330Z,98590.61
2017-10-16T05:19:58.978Z,98589.80
2017-10-16T05:20:30.633Z,98594.91
2017-10-16T05:21:02.518Z,98593.20
2017-10-16T05:21:34.170Z,98594.91
2017-10-16T05:22:05.826Z,98592.81
2017-10-16T05:22:37.478Z,98594.94
2017-10-16T05:23:09.362Z,98594.48
2017-10-16T05:23:41.034Z,98594.94
2017-10-16T05:24:12.682Z,98594.09
2017-10-16T05:24:44.582Z,98595.80
2017-10-16T05:25:16.268Z,98600.05
2017-10-16T05:25:47.921Z,98602.14
2017-10-16T05:26:19.574Z,98598.34
2017-10-16T05:26:51.226Z,98601.75
2017-10-16T05:27:22.874Z,98598.31
2017-10-16T05:27:54.526Z,98600.05
2017-10-16T05:28:26.177Z,98600.47
2017-10-16T05:28:57.827Z,98601.75
2017-10-16T05:29:29.711Z,98600.91
2017-10-16T05:30:01.363Z,98603.88
2017-10-16T05:30:33.017Z,98597.07
2017-10-16T05:31:04.665Z,98598.77
2017-10-16T05:31:36.314Z,98601.33
2017-10-16T05:32:07.962Z,98604.31
2017-10-16T05:32:39.609Z,98599.20
2017-10-16T05:33:11.262Z,98605.16
2017-10-16T05:33:43.153Z,98602.64
2017-10-16T05:34:15.005Z,98607.72
2017-10-16T05:34:46.655Z,98606.44
2017-10-16T05:35:18.386Z,98600.52
2017-10-16T05:35:50.039Z,98603.06
2017-10-16T05:36:21.692Z,98599.20
2017-10-16T05:36:53.347Z,98602.18
2017-10-16T05:37:25.000Z,98600.91
2017-10-16T05:37:56.654Z,98604.31
2017-10-16T05:38:28.314Z,98606.01
2017-10-16T05:39:00.186Z,98600.48
2017-10-16T05:39:31.890Z,98603.91
2017-10-16T05:40:03.674Z,98606.47
2017-10-16T05:40:35.326Z,98603.03
2017-10-16T05:41:06.974Z,98598.38
2017-10-16T05:41:38.622Z,98604.31
2017-10-16T05:42:10.274Z,98597.92
2017-10-16T05:42:41.987Z,98598.77
2017-10-16T05:43:13.638Z,98605.58
2017-10-16T05:43:45.285Z,98601.33
2017-10-16T05:44:16.938Z,98594.94
2017-10-16T05:44:48.585Z,98597.07
2017-10-16T05:45:20.235Z,98596.22
2017-10-16T05:45:51.903Z,98596.22
2017-10-16T05:46:23.743Z,98594.52
2017-10-16T05:46:55.429Z,98597.92
2017-10-16T05:47:27.082Z,98597.50
2017-10-16T05:47:58.734Z,98597.50
2017-10-16T05:48:30.390Z,98596.68
2017-10-16T05:49:02.037Z,98597.95
2017-10-16T05:49:33.947Z,98597.53
2017-10-16T05:50:05.650Z,98600.05
2017-10-16T05:50:37.538Z,98599.63
2017-10-16T05:51:09.196Z,98596.22
2017-10-16T05:51:40.850Z,98595.80
2017-10-16T05:52:12.751Z,98597.50
2017-10-16T05:52:44.718Z,98597.50
2017-10-16T05:53:16.371Z,98593.27
2017-10-16T05:53:48.022Z,98594.98
2017-10-16T05:54:19.670Z,98594.55
2017-10-16T05:54:51.320Z,98595.41
2017-10-16T05:55:23.236Z,98597.10
2017-10-16T05:55:54.886Z,98600.91
2017-10-16T05:56:26.537Z,98600.48
2017-10-16T05:56:58.190Z,98601.79
2017-10-16T05:57:29.838Z,98601.75
2017-10-16T05:58:01.493Z,98600.91
2017-10-16T05:58:33.146Z,98605.16
2017-10-16T05:59:05.037Z,98597.50
2017-10-16T05:59:36.685Z,98603.84
2017-10-16T06:00:08.385Z,98605.58
2017-10-16T06:00:40.038Z,98602.57
2017-10-16T06:01:11.911Z,98603.84
2017-10-16T06:01:43.565Z,98604.27
2017-10-16T06:02:15.217Z,98604.70
2017-10-16T06:02:46.869Z,98609.38
2017-10-16T06:03:18.522Z,98601.72
2017-10-16T06:03:50.170Z,98607.25
2017-10-16T06:04:21.822Z,98612.36
2017-10-16T06:04:53.486Z,98605.97
2017-10-16T06:05:25.198Z,98608.53
2017-10-16T06:05:56.850Z,98603.84
2017-10-16T06:06:28.501Z,98608.95
2017-10-16T06:07:00.279Z,98605.55
2017-10-16T06:07:31.930Z,98605.52
2017-10-16T06:08:03.590Z,98610.20
2017-10-16T06:08:35.239Z,98602.14
2017-10-16T06:09:06.894Z,98607.25
2017-10-16T06:09:38.549Z,98605.55
2017-10-16T06:10:10.199Z,98608.10
2017-10-16T06:10:41.906Z,98611.51
2017-10-16T06:11:13.575Z,98611.94
2017-10-16T06:11:45.364Z,98612.78
2017-10-16T06:12:17.014Z,98611.09